createdAt,value
2023-03-16T00:01:18.929Z,4.05
2023-03-16T00:03:49.726Z,2.15
2023-03-16T00:06:21.146Z,4.18
2023-03-16T00:08:49.877Z,2.92
2023-03-16T00:11:18.345Z,2.78
2023-03-16T00:13:50.230Z,2.45
2023-03-16T00:16:47.915Z,2.95
2023-03-16T00:19:37.904Z,3.20
2023-03-16T00:22:08.294Z,2.83
2023-03-16T00:24:36.626Z,3.47
2023-03-16T00:27:30.815Z,4.43
2023-03-16T00:29:59.137Z,2.50
2023-03-16T00:32:54.257Z,2.28
2023-03-16T00:35:24.024Z,2.60
2023-03-16T00:38:18.575Z,3.10
2023-03-16T00:40:51.386Z,2.28
2023-03-16T00:43:46.865Z,1.75
2023-03-16T00:46:26.592Z,2.17
2023-03-16T00:49:01.122Z,3.47
2023-03-16T00:51:46.447Z,4.45
2023-03-16T00:54:18.034Z,3.00
2023-03-16T00:56:51.484Z,1.75
2023-03-16T00:59:44.851Z,3.30
2023-03-16T01:02:23.756Z,2.90
2023-03-16T01:04:58.563Z,1.70
2023-03-16T01:07:38.811Z,2.23
2023-03-16T01:10:13.795Z,2.83
2023-03-16T01:12:42.157Z,2.83
2023-03-16T01:15:12.115Z,3.65
2023-03-16T01:18:07.958Z,2.40
2023-03-16T01:21:17.880Z,2.17
2023-03-16T01:24:15.309Z,2.17
2023-03-16T01:26:45.289Z,2.28
2023-03-16T01:29:16.740Z,1.75
2023-03-16T01:31:45.373Z,3.03
2023-03-16T01:34:18.640Z,3.67
2023-03-16T01:36:49.353Z,11.25
2023-03-16T01:39:31.572Z,3.95
2023-03-16T01:42:24.242Z,4.47
2023-03-16T01:44:57.879Z,5.10
2023-03-16T01:47:38.567Z,4.35
2023-03-16T01:50:11.767Z,7.05
2023-03-16T01:52:43.903Z,5.43
2023-03-16T01:55:15.085Z,4.43
2023-03-16T01:57:48.010Z,4.15
2023-03-16T02:01:11.374Z,25.40
2023-03-16T02:03:55.619Z,5.28
2023-03-16T02:06:53.120Z,2.10
2023-03-16T02:11:58.062Z,5.00
2023-03-16T02:14:28.314Z,4.90
2023-03-16T02:16:58.380Z,5.30
2023-03-16T02:20:22.465Z,5.43
2023-03-16T02:22:54.484Z,6.72
2023-03-16T02:25:30.573Z,5.72
2023-03-16T02:29:13.187Z,2.83
2023-03-16T02:31:43.789Z,3.60
2023-03-16T02:34:15.507Z,2.20
2023-03-16T02:36:46.967Z,5.20
2023-03-16T02:39:17.494Z,4.53
2023-03-16T02:41:49.746Z,4.35
2023-03-16T02:44:25.515Z,4.43
2023-03-16T02:47:01.418Z,5.60
2023-03-16T02:49:37.877Z,3.95
2023-03-16T02:52:07.835Z,3.90
2023-03-16T02:54:36.300Z,4.00
2023-03-16T02:57:05.567Z,3.90
2023-03-16T02:59:34.667Z,5.10
2023-03-16T03:02:08.426Z,7.50
2023-03-16T03:04:43.253Z,5.60
2023-03-16T03:07:11.882Z,4.70
2023-03-16T03:09:58.067Z,5.35
2023-03-16T03:12:32.095Z,5.20
2023-03-16T03:15:05.233Z,4.60
2023-03-16T03:17:43.275Z,5.35
2023-03-16T03:20:16.991Z,6.05
2023-03-16T03:23:11.732Z,5.30
2023-03-16T03:25:46.357Z,4.88
2023-03-16T03:28:22.383Z,4.40
2023-03-16T03:31:23.722Z,4.80
2023-03-16T03:34:06.753Z,5.40
2023-03-16T03:36:41.632Z,5.47
2023-03-16T03:39:18.744Z,4.95
2023-03-16T03:41:49.962Z,5.07
2023-03-16T03:44:34.695Z,5.82
2023-03-16T03:47:05.942Z,5.18
2023-03-16T03:49:37.884Z,5.20
2023-03-16T03:52:36.831Z,5.45
2023-03-16T03:55:59.165Z,5.35
2023-03-16T03:58:28.509Z,5.50
2023-03-16T04:00:59.006Z,6.07
2023-03-16T04:03:29.012Z,5.32
2023-03-16T04:06:04.529Z,4.50
2023-03-16T04:08:58.611Z,5.07
2023-03-16T04:11:28.741Z,6.03
2023-03-16T04:13:57.323Z,5.32
2023-03-16T04:16:27.469Z,5.22
2023-03-16T04:19:01.824Z,5.03
2023-03-16T04:21:49.201Z,5.90
2023-03-16T04:24:22.490Z,5.80
2023-03-16T04:26:55.898Z,5.22
2023-03-16T04:29:28.288Z,5.57
2023-03-16T04:32:02.308Z,6.40
2023-03-16T04:34:32.465Z,6.15
2023-03-16T04:37:07.222Z,5.15
2023-03-16T04:39:39.884Z,5.80
2023-03-16T04:42:08.620Z,6.50
2023-03-16T04:45:06.165Z,5.72
2023-03-16T04:47:40.750Z,5.70
2023-03-16T04:50:14.953Z,6.35
2023-03-16T04:52:47.306Z,5.57
2023-03-16T05:00:01.080Z,5.80
2023-03-16T05:02:56.632Z,6.97
2023-03-16T05:06:34.847Z,6.05
2023-03-16T05:10:04.657Z,6.22
2023-03-16T05:13:40.774Z,7.50
2023-03-16T05:16:59.555Z,6.47
2023-03-16T05:20:35.343Z,6.20
2023-03-16T05:27:27.429Z,6.13
2023-03-16T05:34:27.477Z,5.60
2023-03-16T05:36:56.056Z,6.18
2023-03-16T05:44:25.110Z,6.85
2023-03-16T05:51:29.570Z,6.50
2023-03-16T05:54:24.365Z,6.15
2023-03-16T05:57:27.872Z,6.13
2023-03-16T06:00:11.468Z,6.47
2023-03-16T06:02:41.916Z,5.00
2023-03-16T06:05:14.586Z,7.47
2023-03-16T06:07:51.487Z,5.88
2023-03-16T06:10:22.992Z,5.87
2023-03-16T06:12:56.123Z,6.10
2023-03-16T06:15:34.000Z,6.35
2023-03-16T06:18:05.630Z,6.82
2023-03-16T06:20:35.635Z,7.30
2023-03-16T06:23:09.659Z,6.00
2023-03-16T06:25:40.658Z,5.70
2023-03-16T06:28:11.530Z,6.80
2023-03-16T06:30:43.285Z,6.72
2023-03-16T06:33:13.860Z,4.90
2023-03-16T06:35:44.267Z,5.07
2023-03-16T06:38:20.439Z,3.00
2023-03-16T06:41:16.009Z,4.75
2023-03-16T06:43:49.388Z,4.22
2023-03-16T06:46:24.054Z,6.05
2023-03-16T06:48:53.620Z,3.03
2023-03-16T06:51:27.030Z,6.55
2023-03-16T06:53:59.916Z,5.00
2023-03-16T06:56:33.101Z,6.30
2023-03-16T06:59:24.442Z,7.00
2023-03-16T07:01:55.412Z,5.43
2023-03-16T07:04:38.012Z,3.33
2023-03-16T07:07:07.677Z,2.35
2023-03-16T07:09:51.842Z,6.20
2023-03-16T07:12:20.595Z,3.90
2023-03-16T07:14:53.075Z,3.72
2023-03-16T07:17:36.263Z,5.97
2023-03-16T07:20:13.528Z,3.63
2023-03-16T07:22:43.775Z,3.25
2023-03-16T07:25:38.409Z,3.10
2023-03-16T07:28:08.296Z,4.03
2023-03-16T07:31:03.452Z,5.32
2023-03-16T07:33:40.850Z,4.53
2023-03-16T07:36:23.315Z,3.10
2023-03-16T07:39:02.030Z,3.55
2023-03-16T07:41:32.607Z,3.58
2023-03-16T07:44:16.668Z,3.33
2023-03-16T07:46:55.305Z,3.45
2023-03-16T07:49:33.854Z,3.63
2023-03-16T07:52:13.780Z,3.03
2023-03-16T07:54:46.863Z,2.97
2023-03-16T07:57:19.093Z,2.90
2023-03-16T07:59:48.959Z,2.75
2023-03-16T08:02:21.889Z,3.85
2023-03-16T08:05:01.470Z,2.90
2023-03-16T08:07:32.433Z,5.30
2023-03-16T08:10:13.971Z,3.53
2023-03-16T08:12:54.410Z,2.45
2023-03-16T08:15:23.089Z,3.30
2023-03-16T08:17:55.918Z,3.80
2023-03-16T08:20:29.182Z,2.72
2023-03-16T08:22:58.974Z,2.45
2023-03-16T08:25:31.764Z,3.35
2023-03-16T08:28:09.084Z,4.22
2023-03-16T08:30:45.978Z,4.10
2023-03-16T08:33:41.619Z,4.28
2023-03-16T08:36:16.862Z,3.90
2023-03-16T08:39:05.621Z,3.70
2023-03-16T08:42:08.101Z,5.55
2023-03-16T08:45:01.104Z,2.95
2023-03-16T08:47:44.872Z,10.00
2023-03-16T08:50:44.534Z,2.60
2023-03-16T08:53:29.881Z,3.10
2023-03-16T08:56:06.421Z,2.40
2023-03-16T08:58:50.557Z,7.13
2023-03-16T09:01:25.930Z,2.72
2023-03-16T09:04:07.798Z,3.30
2023-03-16T09:06:37.054Z,6.85
2023-03-16T09:09:07.215Z,3.88
2023-03-16T09:11:35.776Z,7.05
2023-03-16T09:14:31.104Z,7.82
2023-03-16T09:17:14.050Z,3.08
2023-03-16T09:19:51.770Z,4.22
2023-03-16T09:22:44.289Z,9.18
2023-03-16T09:25:40.001Z,3.03
2023-03-16T09:28:28.720Z,6.18
2023-03-16T09:31:24.071Z,7.25
2023-03-16T09:38:06.199Z,2.20
2023-03-16T09:41:07.909Z,3.08
2023-03-16T09:44:04.833Z,3.97
2023-03-16T09:46:38.855Z,4.13
2023-03-16T09:49:12.069Z,6.35
2023-03-16T09:52:33.548Z,10.98
2023-03-16T09:55:08.157Z,12.95
2023-03-16T09:57:53.622Z,3.72
2023-03-16T10:00:25.586Z,2.10
2023-03-16T10:03:32.671Z,7.18
2023-03-16T10:06:04.103Z,3.28
2023-03-16T10:08:38.994Z,4.03
2023-03-16T10:11:19.544Z,8.52
2023-03-16T10:14:41.513Z,6.13
2023-03-16T10:17:22.256Z,3.85
2023-03-16T10:19:59.425Z,2.47
2023-03-16T10:22:35.045Z,2.78
2023-03-16T10:25:12.935Z,3.28
2023-03-16T10:27:45.367Z,3.60
2023-03-16T10:30:29.305Z,2.60
2023-03-16T10:33:13.470Z,3.40
2023-03-16T10:36:03.952Z,3.05
2023-03-16T10:38:59.832Z,4.22
2023-03-16T10:41:34.326Z,2.08
2023-03-16T10:44:08.695Z,1.75
2023-03-16T10:46:40.499Z,2.83
2023-03-16T10:49:25.947Z,2.05
2023-03-16T10:51:55.382Z,2.10
2023-03-16T10:54:30.835Z,5.55
2023-03-16T10:56:59.488Z,2.50
2023-03-16T10:59:32.386Z,2.05
2023-03-16T11:02:05.528Z,2.30
2023-03-16T11:04:38.231Z,1.88
2023-03-16T11:07:17.633Z,2.08
2023-03-16T11:09:52.133Z,3.00
2023-03-16T11:12:29.022Z,1.88
2023-03-16T11:15:51.530Z,1.80
2023-03-16T11:18:31.332Z,1.60
2023-03-16T11:21:12.853Z,0.80
2023-03-16T11:24:34.799Z,1.20
2023-03-16T11:27:09.187Z,1.42
2023-03-16T11:29:53.049Z,11.60
2023-03-16T11:32:32.315Z,1.73
2023-03-16T11:35:01.259Z,2.60
2023-03-16T11:38:09.765Z,2.47
2023-03-16T11:40:50.240Z,2.00
2023-03-16T11:43:38.231Z,1.70
2023-03-16T11:46:15.811Z,1.98
2023-03-16T11:49:04.134Z,3.38
2023-03-16T11:51:59.080Z,2.58
2023-03-16T11:54:43.708Z,1.38
2023-03-16T11:57:35.215Z,2.10
2023-03-16T12:00:18.745Z,1.85
2023-03-16T12:03:09.504Z,2.00
2023-03-16T12:05:56.606Z,1.73
2023-03-16T12:08:53.832Z,1.27
2023-03-16T12:11:52.456Z,1.35
2023-03-16T12:14:50.537Z,3.20
2023-03-16T12:17:57.868Z,1.13
2023-03-16T12:21:31.766Z,1.15
2023-03-16T12:28:29.257Z,1.60
2023-03-16T12:35:25.688Z,1.20
2023-03-16T12:38:46.548Z,1.90
2023-03-16T12:49:38.791Z,0.90
2023-03-16T12:56:31.392Z,2.03
2023-03-16T12:59:27.863Z,2.25
2023-03-16T13:02:17.844Z,1.45
2023-03-16T13:04:56.825Z,1.80
2023-03-16T13:08:06.935Z,1.92
2023-03-16T13:19:24.845Z,1.65
2023-03-16T13:22:57.020Z,1.58
2023-03-16T13:25:44.292Z,1.17
2023-03-16T13:28:18.231Z,1.52
2023-03-16T13:30:51.523Z,1.70
2023-03-16T13:37:38.175Z,1.60
2023-03-16T13:40:20.971Z,1.73
2023-03-16T13:42:55.479Z,1.63
2023-03-16T13:49:50.964Z,1.30
2023-03-16T13:56:40.318Z,1.60
2023-03-16T14:03:22.841Z,1.60
2023-03-16T14:06:44.388Z,1.73
2023-03-16T14:09:39.860Z,2.13
2023-03-16T14:12:16.303Z,1.70
2023-03-16T14:14:55.949Z,1.23
2023-03-16T14:17:57.171Z,1.63
2023-03-16T14:25:36.071Z,1.25
2023-03-16T14:28:09.044Z,1.30
2023-03-16T14:35:05.904Z,1.50
2023-03-16T14:37:38.746Z,1.33
2023-03-16T14:44:37.097Z,1.17
2023-03-16T14:51:24.325Z,1.63
2023-03-16T14:54:23.066Z,2.40
2023-03-16T14:57:19.225Z,3.00
2023-03-16T14:59:53.495Z,1.00
2023-03-16T15:02:45.342Z,1.50
2023-03-16T15:05:41.923Z,1.88
2023-03-16T15:08:18.419Z,2.30
2023-03-16T15:10:47.831Z,2.70
2023-03-16T15:13:34.870Z,1.80
2023-03-16T15:16:32.232Z,1.92
2023-03-16T15:19:15.091Z,1.65
2023-03-16T15:22:35.648Z,2.10
2023-03-16T15:25:36.488Z,1.58
2023-03-16T15:28:32.983Z,1.38
2023-03-16T15:31:27.511Z,2.25
2023-03-16T15:34:06.594Z,1.60
2023-03-16T15:37:03.686Z,2.40
2023-03-16T15:39:34.149Z,1.95
2023-03-16T15:42:31.784Z,1.90
2023-03-16T15:45:07.628Z,2.30
2023-03-16T15:48:01.705Z,1.42
2023-03-16T15:51:13.365Z,1.80
2023-03-16T15:53:46.799Z,2.40
2023-03-16T15:56:17.946Z,2.90
2023-03-16T15:59:38.034Z,2.75
2023-03-16T16:02:25.580Z,2.10
2023-03-16T16:05:07.565Z,1.70
2023-03-16T16:08:01.901Z,1.52
2023-03-16T16:10:41.283Z,2.40
2023-03-16T16:24:57.593Z,2.58
2023-03-16T16:28:04.566Z,2.33
2023-03-16T16:35:04.673Z,2.63
2023-03-16T16:42:05.898Z,3.45
2023-03-16T16:45:46.047Z,3.75
2023-03-16T16:53:17.922Z,8.93
2023-03-16T16:56:47.943Z,4.40
2023-03-16T17:03:35.978Z,9.23
2023-03-16T17:10:34.600Z,5.65
2023-03-16T17:21:47.183Z,6.97
2023-03-16T17:28:45.672Z,6.95
2023-03-16T17:35:33.139Z,5.20
2023-03-16T17:39:02.517Z,4.55
2023-03-16T17:45:59.373Z,8.85
2023-03-16T17:52:41.045Z,7.78
2023-03-16T17:59:29.381Z,5.05
2023-03-16T18:06:30.331Z,7.03
2023-03-16T18:13:27.441Z,7.47
2023-03-16T18:25:00.375Z,4.40
2023-03-16T18:32:00.597Z,4.75
2023-03-16T18:38:45.978Z,4.68
2023-03-16T18:45:43.578Z,5.63
2023-03-16T18:56:48.037Z,5.65
2023-03-16T19:03:46.674Z,5.50
2023-03-16T19:10:38.024Z,5.43
2023-03-16T19:14:15.475Z,5.60
2023-03-16T19:21:39.662Z,5.30
2023-03-16T19:25:53.980Z,5.32
2023-03-16T19:29:03.419Z,4.95
2023-03-16T19:31:35.630Z,4.97
2023-03-16T19:34:45.655Z,4.90
2023-03-16T19:38:30.277Z,4.88
2023-03-16T19:41:33.086Z,5.05
2023-03-16T19:44:18.385Z,6.50
2023-03-16T19:46:50.323Z,6.70
2023-03-16T19:49:23.506Z,6.70
2023-03-16T19:51:56.844Z,6.53
2023-03-16T19:54:33.982Z,6.00
2023-03-16T19:57:15.910Z,6.18
2023-03-16T19:59:51.035Z,5.18
2023-03-16T20:02:37.933Z,5.60
2023-03-16T20:05:17.066Z,4.63
2023-03-16T20:07:49.674Z,4.60
2023-03-16T20:10:26.944Z,3.97
2023-03-16T20:13:00.975Z,4.05
2023-03-16T20:15:34.050Z,4.22
2023-03-16T20:18:21.826Z,4.03
2023-03-16T20:20:54.288Z,3.90
2023-03-16T20:23:29.307Z,3.45
2023-03-16T20:26:05.877Z,3.83
2023-03-16T20:28:40.241Z,3.80
2023-03-16T20:31:22.476Z,3.78
2023-03-16T20:34:21.059Z,3.90
2023-03-16T20:36:51.228Z,3.85
2023-03-16T20:39:25.491Z,3.60
2023-03-16T20:42:03.557Z,3.58
2023-03-16T20:44:35.801Z,3.80
2023-03-16T20:47:07.818Z,4.20
2023-03-16T20:49:38.990Z,3.85
2023-03-16T20:52:18.334Z,4.30
2023-03-16T20:54:53.411Z,4.35
2023-03-16T20:57:28.184Z,4.10
2023-03-16T21:00:01.547Z,4.00
2023-03-16T21:02:43.333Z,4.53
2023-03-16T21:05:18.276Z,5.10
2023-03-16T21:07:48.613Z,4.97
2023-03-16T21:10:22.422Z,6.88
2023-03-16T21:12:59.349Z,6.45
2023-03-16T21:15:34.722Z,6.82
2023-03-16T21:18:17.449Z,8.13
2023-03-16T21:20:50.338Z,7.70
2023-03-16T21:23:25.802Z,7.63
2023-03-16T21:25:59.452Z,7.07
2023-03-16T21:28:33.876Z,6.72
2023-03-16T21:31:10.275Z,8.55
2023-03-16T21:33:43.858Z,8.80
2023-03-16T21:36:29.060Z,7.95
2023-03-16T21:39:00.917Z,7.43
2023-03-16T21:41:30.450Z,8.52
2023-03-16T21:44:04.387Z,8.50
2023-03-16T21:46:39.176Z,9.57
2023-03-16T21:49:13.571Z,10.25
2023-03-16T21:51:44.448Z,11.45
2023-03-16T21:54:15.728Z,12.27
2023-03-16T21:56:45.579Z,11.93
2023-03-16T21:59:16.433Z,12.52
2023-03-16T22:02:01.182Z,11.98
2023-03-16T22:04:34.808Z,12.15
2023-03-16T22:07:03.243Z,9.85
2023-03-16T22:09:57.767Z,10.75
2023-03-16T22:12:26.167Z,8.85
2023-03-16T22:14:57.036Z,9.70
2023-03-16T22:17:28.916Z,8.82
2023-03-16T22:19:57.819Z,8.82
2023-03-16T22:22:55.928Z,8.50
2023-03-16T22:25:29.577Z,8.02
2023-03-16T22:28:04.099Z,9.32
2023-03-16T22:30:38.051Z,8.05
2023-03-16T22:33:13.516Z,8.75
2023-03-16T22:35:44.214Z,9.70
2023-03-16T22:38:15.496Z,9.30
2023-03-16T22:41:03.997Z,9.80
2023-03-16T22:43:36.047Z,12.13
2023-03-16T22:46:06.323Z,9.77
2023-03-16T22:48:36.684Z,8.40
2023-03-16T22:51:05.966Z,8.55
2023-03-16T22:53:45.108Z,8.50
2023-03-16T22:56:13.753Z,8.82
2023-03-16T22:58:44.900Z,9.18
2023-03-16T23:01:24.866Z,9.63
2023-03-16T23:03:54.520Z,10.38
2023-03-16T23:06:25.686Z,11.20
2023-03-16T23:08:59.787Z,12.10
2023-03-16T23:11:31.034Z,11.05
2023-03-16T23:14:00.620Z,13.07
2023-03-16T23:16:34.737Z,12.55
2023-03-16T23:19:24.713Z,11.90
2023-03-16T23:21:56.930Z,10.75
2023-03-16T23:24:25.482Z,8.82
2023-03-16T23:26:55.792Z,7.88
2023-03-16T23:29:24.806Z,7.70
2023-03-16T23:31:54.922Z,6.78
2023-03-16T23:34:25.423Z,6.60
2023-03-16T23:36:54.839Z,6.53
2023-03-16T23:39:23.439Z,5.65
2023-03-16T23:41:53.312Z,6.22
2023-03-16T23:44:42.855Z,6.78
2023-03-16T23:47:35.945Z,6.20
2023-03-16T23:50:08.339Z,7.68
2023-03-16T23:52:40.040Z,8.00
2023-03-16T23:55:14.484Z,6.68
2023-03-16T23:58:05.088Z,6.22
